Jinchuan Airport


Codes: JIC/JIC
Name: Jinchuan Airport
City: Jinchang
Country: China
Elevation: 4740 ft.
Wikipedia:

Photos at Jinchuan Airport


   Photos courtesy of SpottingLog. You can add your own sightings and photos by signing up for a free trial today.



No photos found.

Weather at Jinchuan Airport


Time (UTC)DescriptionTempratureWindCloud coverageVisibilityPressureHumidity
15-Apr-2024 18:00Overcast Clouds11°C2 mph, S97%10000m1013hPa21%
15-Apr-2024 21:00Overcast Clouds11°C4 mph, E98%10000m1012hPa22%
16-Apr-2024 00:00Overcast Clouds10°C2 mph, NW96%10000m1014hPa25%
16-Apr-2024 03:00Few Clouds14°C4 mph, NE15%10000m1013hPa20%
16-Apr-2024 06:00Clear Sky19°C9 mph, NE8%10000m1010hPa14%
16-Apr-2024 09:00Clear Sky21°C9 mph, N3%10000m1008hPa12%
16-Apr-2024 12:00Clear Sky19°C4 mph, NE5%10000m1010hPa18%
16-Apr-2024 15:00Clear Sky16°C4 mph, E0%10000m1012hPa24%
16-Apr-2024 18:00Clear Sky14°C4 mph, SE0%10000m1011hPa28%
16-Apr-2024 21:00Clear Sky12°C7 mph, SE1%10000m1011hPa31%
17-Apr-2024 00:00Clear Sky13°C7 mph, SE1%10000m1012hPa29%
17-Apr-2024 03:00Clear Sky19°C13 mph, SE2%10000m1009hPa18%
17-Apr-2024 06:00Few Clouds25°C16 mph, E12%10000m1005hPa15%
17-Apr-2024 09:00Scattered Clouds27°C16 mph, E29%10000m1001hPa13%
17-Apr-2024 12:00Broken Clouds22°C18 mph, NE55%10000m1003hPa20%
17-Apr-2024 15:00Broken Clouds19°C11 mph, N84%10000m1005hPa23%
17-Apr-2024 18:00Overcast Clouds17°C13 mph, NW92%10000m1006hPa19%
17-Apr-2024 21:00Overcast Clouds15°C13 mph, NW100%10000m1006hPa20%
18-Apr-2024 00:00Overcast Clouds16°C13 mph, NW100%10000m1007hPa21%
18-Apr-2024 03:00Overcast Clouds17°C20 mph, NW100%10000m1009hPa27%
18-Apr-2024 06:00Overcast Clouds14°C29 mph, NW100%10000m1012hPa36%
18-Apr-2024 09:00Overcast Clouds13°C22 mph, N100%10000m1012hPa40%
18-Apr-2024 12:00Light Rain10°C20 mph, NW100%10000m1015hPa67%
18-Apr-2024 15:00Light Rain11°C16 mph, W100%10000m1015hPa58%
18-Apr-2024 18:00Overcast Clouds11°C9 mph, NW100%10000m1014hPa57%
18-Apr-2024 21:00Overcast Clouds10°C13 mph, NW99%10000m1014hPa57%
19-Apr-2024 00:00Overcast Clouds11°C9 mph, W98%10000m1015hPa57%
19-Apr-2024 03:00Few Clouds14°C11 mph, N16%10000m1014hPa39%
19-Apr-2024 06:00Scattered Clouds17°C18 mph, N25%10000m1012hPa33%
19-Apr-2024 09:00Overcast Clouds17°C18 mph, N85%10000m1011hPa35%
19-Apr-2024 12:00Broken Clouds15°C11 mph, N66%10000m1013hPa44%
19-Apr-2024 15:00Broken Clouds13°C7 mph, NW64%10000m1015hPa46%
19-Apr-2024 18:00Broken Clouds13°C9 mph, NW82%10000m1014hPa52%
19-Apr-2024 21:00Overcast Clouds11°C9 mph, NW100%10000m1014hPa63%
20-Apr-2024 00:00Light Rain11°C4 mph, NW100%10000m1016hPa59%
20-Apr-2024 03:00Light Rain13°C7 mph, NW100%10000m1016hPa46%
20-Apr-2024 06:00Overcast Clouds16°C7 mph, N100%10000m1013hPa36%
20-Apr-2024 09:00Broken Clouds18°C16 mph, N80%10000m1010hPa25%
20-Apr-2024 12:00Broken Clouds16°C9 mph, NE80%10000m1011hPa33%
20-Apr-2024 15:00Scattered Clouds14°C7 mph, S50%10000m1013hPa44%